Time;durP1;ratioP1;P1;durP2;ratioP2;P2;SDS_P1;SDS_P2;PMS_P1;PMS_P2;Temp;Humidity;BMP_temperature;BMP_pressure;BME280_temperature;BME280_humidity;BME280_pressure;Samples;Min_cycle;Max_cycle;Signal;HPM_P1;HPM_P2
2023/02/22 00:00:22;;;;;;;78.77;15.60;;;;;;;3.58;100.00;100710.03;696781;28;1157;-64
2023/02/22 00:00:43;;;;;;;45.95;14.45;;;;;;;3.59;100.00;100706.59;693784;28;4298;-65
2023/02/22 00:01:17;;;;;;;41.05;14.15;;;;;;;3.60;100.00;100705.78;693757;28;1945;-65
2023/02/22 00:01:49;;;;;;;67.55;16.00;;;;;;;3.62;100.00;100705.81;694478;28;1150;-63
2023/02/22 00:02:09;;;;;;;74.05;15.50;;;;;;;3.71;100.00;100703.41;694481;28;1158;-66
2023/02/22 00:02:31;;;;;;;55.47;15.02;;;;;;;3.73;100.00;100702.63;695682;28;1404;-66
2023/02/22 00:02:58;;;;;;;56.78;14.55;;;;;;;3.69;100.00;100703.38;695719;28;1053;-66
2023/02/22 00:03:24;;;;;;;59.15;14.55;;;;;;;3.67;100.00;100711.94;695496;28;1158;-67
2023/02/22 00:03:50;;;;;;;49.10;13.90;;;;;;;3.64;100.00;100707.59;695225;28;4572;-64
2023/02/22 00:04:12;;;;;;;52.10;14.40;;;;;;;3.63;100.00;100702.38;695313;28;1108;-66
2023/02/22 00:04:34;;;;;;;52.75;14.35;;;;;;;3.62;100.00;100698.91;692851;28;1151;-66
2023/02/22 00:04:54;;;;;;;52.80;14.13;;;;;;;3.66;100.00;100705.03;692722;28;1040;-66
2023/02/22 00:05:18;;;;;;;58.40;14.27;;;;;;;3.65;100.00;100698.13;694968;28;1131;-66
2023/02/22 00:05:39;;;;;;;40.90;13.55;;;;;;;3.65;100.00;100704.16;694861;28;1320;-64
2023/02/22 00:06:04;;;;;;;48.92;13.75;;;;;;;3.63;100.00;100705.84;692945;28;2131;-64
2023/02/22 00:06:25;;;;;;;53.25;14.77;;;;;;;3.62;100.00;100703.22;695376;28;1219;-66
2023/02/22 00:06:46;;;;;;;63.93;15.27;;;;;;;3.65;100.00;100698.97;694655;28;4356;-65
2023/02/22 00:07:07;;;;;;;59.45;15.93;;;;;;;3.65;100.00;100698.13;695664;28;1157;-66
2023/02/22 00:07:27;;;;;;;58.03;16.83;;;;;;;3.67;100.00;100697.31;695174;28;990;-65
2023/02/22 00:07:48;;;;;;;57.20;14.90;;;;;;;3.66;100.00;100694.72;695430;28;1034;-65
2023/02/22 00:08:10;;;;;;;36.72;14.23;;;;;;;3.67;100.00;100696.44;695838;28;1161;-67
2023/02/22 00:08:33;;;;;;;43.15;13.98;;;;;;;3.66;100.00;100702.47;694379;28;1198;-66
2023/02/22 00:08:54;;;;;;;66.53;15.15;;;;;;;3.67;100.00;100699.91;695115;28;1134;-65
2023/02/22 00:09:19;;;;;;;59.33;15.02;;;;;;;3.72;100.00;100698.31;694293;28;1131;-65
2023/02/22 00:09:39;;;;;;;56.20;14.65;;;;;;;3.81;100.00;100696.75;694295;28;4579;-65
2023/02/22 00:09:59;;;;;;;56.22;14.55;;;;;;;3.84;100.00;100696.84;694409;28;968;-65
2023/02/22 00:10:20;;;;;;;52.93;14.77;;;;;;;3.88;100.00;100696.09;695840;28;1353;-67
2023/02/22 00:10:40;;;;;;;53.03;14.75;;;;;;;3.92;100.00;100703.06;693500;28;1059;-66
2023/02/22 00:11:04;;;;;;;43.57;13.67;;;;;;;3.95;100.00;100700.56;694488;28;1251;-66
2023/02/22 00:11:25;;;;;;;35.45;13.38;;;;;;;3.90;100.00;100692.69;695302;28;1352;-66
2023/02/22 00:11:47;;;;;;;33.92;13.85;;;;;;;3.86;100.00;100697.75;694243;28;1018;-64
2023/02/22 00:12:08;;;;;;;37.20;13.38;;;;;;;3.80;100.00;100695.88;691685;28;1171;-65
2023/02/22 00:12:29;;;;;;;49.42;13.45;;;;;;;3.76;100.00;100701.84;692935;28;924;-66
2023/02/22 00:12:51;;;;;;;57.50;15.18;;;;;;;3.72;100.00;100700.91;689866;28;4317;-66
2023/02/22 00:13:13;;;;;;;46.00;14.75;;;;;;;3.69;100.00;100694.78;691148;28;1150;-64
2023/02/22 00:13:35;;;;;;;40.30;15.02;;;;;;;3.67;100.00;100693.84;693551;28;1268;-66
2023/02/22 00:13:56;;;;;;;44.75;14.65;;;;;;;3.66;100.00;100695.56;694253;28;1050;-63
2023/02/22 00:14:19;;;;;;;52.47;15.52;;;;;;;3.63;100.00;100700.66;697222;28;1298;-66
2023/02/22 00:14:39;;;;;;;58.67;15.48;;;;;;;3.64;100.00;100699.84;695709;28;1324;-66
2023/02/22 00:14:59;;;;;;;42.07;13.93;;;;;;;3.65;100.00;100693.81;694790;28;1035;-66
2023/02/22 00:15:26;;;;;;;35.67;14.13;;;;;;;3.66;100.00;100686.94;694289;28;1226;-65
2023/02/22 00:15:46;;;;;;;41.60;14.85;;;;;;;3.66;100.00;100695.56;693571;28;4531;-66
2023/02/22 00:16:07;;;;;;;60.95;15.27;;;;;;;3.65;100.00;100692.94;694630;28;1099;-66
2023/02/22 00:16:27;;;;;;;52.70;14.43;;;;;;;3.64;100.00;100702.44;693928;28;1181;-64
2023/02/22 00:16:47;;;;;;;57.00;15.17;;;;;;;3.63;100.00;100692.91;694085;28;1054;-66
2023/02/22 00:17:08;;;;;;;79.00;16.53;;;;;;;3.65;100.00;100690.38;694579;28;1174;-65
2023/02/22 00:17:29;;;;;;;58.90;15.57;;;;;;;3.63;100.00;100692.91;694936;28;1296;-66
2023/02/22 00:17:49;;;;;;;59.63;15.05;;;;;;;3.66;100.00;100690.41;695632;28;1418;-65
2023/02/22 00:18:15;;;;;;;63.95;15.25;;;;;;;3.68;100.00;100690.44;695358;28;1237;-65
2023/02/22 00:18:36;;;;;;;64.90;15.90;;;;;;;3.72;100.00;100694.84;694928;28;1205;-65
2023/02/22 00:18:56;;;;;;;54.13;15.13;;;;;;;3.74;100.00;100691.44;694316;28;4523;-66
2023/02/22 00:19:17;;;;;;;49.47;14.47;;;;;;;3.70;100.00;100688.78;694223;28;1292;-67
2023/02/22 00:19:38;;;;;;;57.00;15.45;;;;;;;3.71;100.00;100696.56;693794;28;1363;-65
2023/02/22 00:19:58;;;;;;;57.50;14.93;;;;;;;3.70;100.00;100687.03;691350;28;1018;-66
2023/02/22 00:20:19;;;;;;;39.60;14.00;;;;;;;3.70;100.00;100691.34;693505;28;1360;-66
2023/02/22 00:20:40;;;;;;;33.90;14.75;;;;;;;3.68;100.00;100693.00;694023;28;1074;-65
2023/02/22 00:21:01;;;;;;;45.70;14.93;;;;;;;3.75;100.00;100690.63;695133;28;1906;-66
2023/02/22 00:21:21;;;;;;;67.00;15.60;;;;;;;3.78;100.00;100688.94;694955;28;1126;-66
2023/02/22 00:21:43;;;;;;;74.80;15.77;;;;;;;3.75;100.00;100690.63;692870;28;4424;-66
2023/02/22 00:22:04;;;;;;;62.90;16.05;;;;;;;3.79;100.00;100688.97;693104;28;1146;-66
2023/02/22 00:22:25;;;;;;;56.90;15.85;;;;;;;3.78;100.00;100691.53;693244;28;1535;-67
2023/02/22 00:22:47;;;;;;;44.13;14.50;;;;;;;3.75;100.00;100689.72;695166;28;1141;-66
2023/02/22 00:23:19;;;;;;;52.42;13.82;;;;;;;3.70;100.00;100687.03;693088;28;3713;-66
2023/02/22 00:23:45;;;;;;;64.88;14.93;;;;;;;3.70;100.00;100687.03;694734;28;1325;-66
2023/02/22 00:24:21;;;;;;;62.17;14.48;;;;;;;3.74;100.00;100690.59;694238;28;1189;-67
2023/02/22 00:24:42;;;;;;;57.60;14.10;;;;;;;3.77;100.00;100687.19;692162;28;4557;-66
2023/02/22 00:25:02;;;;;;;56.00;14.00;;;;;;;3.74;100.00;100693.19;694254;28;1536;-66
2023/02/22 00:25:23;;;;;;;73.13;15.27;;;;;;;3.70;100.00;100681.88;692434;28;1294;-66
2023/02/22 00:25:45;;;;;;;79.25;16.30;;;;;;;3.70;100.00;100686.19;693637;28;1443;-66
2023/02/22 00:26:08;;;;;;;62.72;14.35;;;;;;;3.70;100.00;100684.47;693656;28;2109;-65
2023/02/22 00:26:32;;;;;;;60.83;14.50;;;;;;;3.68;100.00;100685.25;691750;28;1045;-65
2023/02/22 00:26:56;;;;;;;80.72;15.65;;;;;;;3.68;100.00;100683.56;695634;28;1058;-65
2023/02/22 00:27:17;;;;;;;94.55;16.08;;;;;;;3.68;100.00;100682.66;694136;28;1201;-65
2023/02/22 00:27:37;;;;;;;100.53;15.85;;;;;;;3.72;100.00;100685.38;693953;28;4301;-66
2023/02/22 00:27:58;;;;;;;83.97;15.67;;;;;;;3.71;100.00;100685.31;693821;28;1055;-66
2023/02/22 00:28:19;;;;;;;64.57;14.65;;;;;;;3.68;100.00;100683.56;697926;28;2060;-66
2023/02/22 00:28:41;;;;;;;66.65;14.45;;;;;;;3.73;100.00;100683.66;695523;28;1291;-66
2023/02/22 00:29:01;;;;;;;74.10;14.50;;;;;;;3.72;100.00;100680.22;691653;28;1211;-70
2023/02/22 00:29:22;;;;;;;50.33;13.90;;;;;;;3.67;100.00;100686.97;686616;28;935;-66
2023/02/22 00:29:46;;;;;;;76.03;14.32;;;;;;;3.63;100.00;100677.41;688169;28;1067;-65
2023/02/22 00:30:09;;;;;;;84.93;15.85;;;;;;;3.64;100.00;100681.75;687278;28;1342;-66
2023/02/22 00:30:30;;;;;;;92.28;16.30;;;;;;;3.66;100.00;100685.22;691070;28;944;-66
2023/02/22 00:30:53;;;;;;;95.63;15.48;;;;;;;3.65;100.00;100682.59;690460;28;4379;-66
2023/02/22 00:31:15;;;;;;;66.72;14.68;;;;;;;3.63;100.00;100674.81;689203;28;1443;-64
2023/02/22 00:31:37;;;;;;;96.35;15.63;;;;;;;3.66;100.00;100684.38;689279;28;1265;-67
2023/02/22 00:31:58;;;;;;;90.95;15.02;;;;;;;3.65;100.00;100678.28;687221;28;1138;-67
2023/02/22 00:32:18;;;;;;;50.65;13.50;;;;;;;3.62;100.00;100677.38;690803;28;840;-66
2023/02/22 00:32:41;;;;;;;89.40;14.96;;;;;;;3.59;100.00;100678.16;693939;28;1396;-65
2023/02/22 00:33:02;;;;;;;76.53;14.40;;;;;;;3.56;100.00;100681.56;690702;28;1134;-66
2023/02/22 00:33:22;;;;;;;67.40;14.43;;;;;;;3.56;100.00;100675.50;694975;28;1206;-65
2023/02/22 00:33:43;;;;;;;64.27;14.33;;;;;;;3.55;100.00;100676.34;692632;28;4378;-66
2023/02/22 00:34:03;;;;;;;92.22;15.50;;;;;;;3.54;100.00;100679.75;694512;28;854;-67
2023/02/22 00:34:24;;;;;;;133.38;17.02;;;;;;;3.54;100.00;100679.75;691120;28;924;-67
2023/02/22 00:34:44;;;;;;;114.13;16.97;;;;;;;3.52;100.00;100684.03;691323;28;1332;-65
2023/02/22 00:35:07;;;;;;;118.93;16.93;;;;;;;3.51;100.00;100679.69;692552;28;907;-65
2023/02/22 00:35:29;;;;;;;90.75;15.45;;;;;;;3.51;100.00;100680.56;688260;28;1440;-64
2023/02/22 00:35:51;;;;;;;87.68;15.55;;;;;;;3.49;100.00;100679.66;684936;28;1383;-66
2023/02/22 00:36:13;;;;;;;102.55;16.42;;;;;;;3.55;100.00;100678.94;684016;28;817;-65
2023/02/22 00:36:33;;;;;;;82.85;14.82;;;;;;;3.63;100.00;100673.94;686535;28;917;-66
2023/02/22 00:36:54;;;;;;;89.57;14.50;;;;;;;3.68;100.00;100675.81;685389;28;4647;-66
2023/02/22 00:37:14;;;;;;;79.90;14.10;;;;;;;3.72;100.00;100677.63;688179;28;1239;-66
2023/02/22 00:37:35;;;;;;;79.43;14.13;;;;;;;3.73;100.00;100678.50;690746;28;837;-66
2023/02/22 00:37:57;;;;;;;97.07;15.50;;;;;;;3.67;100.00;100673.16;692822;28;1168;-66
2023/02/22 00:38:18;;;;;;;86.00;14.57;;;;;;;3.65;100.00;100678.28;692442;28;1238;-66
2023/02/22 00:38:40;;;;;;;82.07;14.68;;;;;;;3.61;100.00;100676.47;693174;28;846;-67
2023/02/22 00:39:00;;;;;;;89.30;13.88;;;;;;;3.57;100.00;100685.88;697542;28;1002;-67
2023/02/22 00:39:21;;;;;;;80.15;14.30;;;;;;;3.55;100.00;100681.50;695608;28;923;-66
2023/02/22 00:39:41;;;;;;;48.80;13.57;;;;;;;3.53;100.00;100683.16;692303;28;4456;-64
2023/02/22 00:40:07;;;;;;;44.53;14.33;;;;;;;3.53;100.00;100678.91;689138;28;1344;-66
2023/02/22 00:40:33;;;;;;;83.57;15.05;;;;;;;3.53;100.00;100678.00;688523;28;1227;-66
2023/02/22 00:40:54;;;;;;;101.65;15.30;;;;;;;3.52;100.00;100678.88;690856;28;1109;-65
2023/02/22 00:41:14;;;;;;;74.30;14.10;;;;;;;3.52;100.00;100679.72;688252;28;1975;-65
2023/02/22 00:41:35;;;;;;;67.10;13.90;;;;;;;3.51;100.00;100682.28;689505;28;1362;-65
2023/02/22 00:41:56;;;;;;;57.17;13.98;;;;;;;3.50;100.00;100683.09;689017;28;5583;-66
2023/02/22 00:42:17;;;;;;;98.70;16.30;;;;;;;3.48;100.00;100679.63;687619;28;879;-67
2023/02/22 00:42:38;;;;;;;98.03;16.60;;;;;;;3.48;100.00;100677.03;687773;28;4632;-66
2023/02/22 00:43:00;;;;;;;91.33;15.87;;;;;;;3.48;100.00;100679.63;686844;28;916;-66
2023/02/22 00:43:21;;;;;;;68.00;14.52;;;;;;;3.48;100.00;100674.47;689586;28;1179;-67
2023/02/22 00:43:41;;;;;;;68.47;14.80;;;;;;;3.49;100.00;100671.91;690272;28;1428;-67
2023/02/22 00:44:01;;;;;;;66.37;14.00;;;;;;;3.47;100.00;100678.72;692091;28;1206;-65
2023/02/22 00:44:22;;;;;;;95.10;15.00;;;;;;;3.48;100.00;100677.03;691139;28;845;-66
2023/02/22 00:44:43;;;;;;;113.00;15.50;;;;;;;3.49;100.00;100678.75;692192;28;1020;-65
2023/02/22 00:45:06;;;;;;;91.68;14.75;;;;;;;3.55;100.00;100676.34;689213;28;1251;-65
2023/02/22 00:45:30;;;;;;;84.28;13.93;;;;;;;3.54;100.00;100678.03;691651;28;831;-66
2023/02/22 00:45:51;;;;;;;57.20;13.30;;;;;;;3.53;100.00;100676.31;690846;28;4549;-67
2023/02/22 00:46:12;;;;;;;92.73;14.83;;;;;;;3.52;100.00;100681.44;695704;28;1108;-66
2023/02/22 00:46:33;;;;;;;94.22;15.63;;;;;;;3.49;100.00;100702.03;691405;28;2081;-65
2023/02/22 00:46:53;;;;;;;92.27;15.57;;;;;;;3.48;100.00;100674.47;693635;28;1262;-65
2023/02/22 00:47:15;;;;;;;87.00;15.36;;;;;;;3.46;100.00;100674.44;693754;28;1504;-66
2023/02/22 00:47:35;;;;;;;101.80;15.83;;;;;;;3.44;100.00;100673.50;691895;28;1354;-66
2023/02/22 00:47:57;;;;;;;100.00;15.33;;;;;;;3.41;100.00;100671.72;688250;28;1270;-67
2023/02/22 00:48:18;;;;;;;107.78;15.60;;;;;;;3.41;100.00;100676.88;689585;28;820;-66
2023/02/22 00:48:38;;;;;;;84.47;14.70;;;;;;;3.43;100.00;100671.75;691202;28;4330;-67
2023/02/22 00:48:59;;;;;;;76.73;14.73;;;;;;;3.49;100.00;100669.31;691423;28;1106;-66
2023/02/22 00:49:19;;;;;;;69.03;14.73;;;;;;;3.48;100.00;100669.28;689875;28;754;-67
2023/02/22 00:49:39;;;;;;;58.27;13.77;;;;;;;3.47;100.00;100672.69;691759;28;797;-66
2023/02/22 00:50:00;;;;;;;62.65;13.68;;;;;;;3.47;100.00;100664.94;694927;28;1178;-67
2023/02/22 00:50:22;;;;;;;77.80;14.67;;;;;;;3.48;100.00;100671.88;694114;28;797;-66
2023/02/22 00:50:43;;;;;;;101.88;15.32;;;;;;;3.57;100.00;100670.38;692017;28;1384;-65
2023/02/22 00:51:04;;;;;;;95.45;15.63;;;;;;;3.56;100.00;100666.03;689662;28;1300;-66
2023/02/22 00:51:25;;;;;;;83.20;14.77;;;;;;;3.56;100.00;100665.19;692430;28;1160;-64
2023/02/22 00:51:45;;;;;;;75.20;13.80;;;;;;;3.53;100.00;100667.66;690357;28;4338;-65
2023/02/22 00:52:07;;;;;;;87.60;14.50;;;;;;;3.54;100.00;100670.28;690636;28;829;-66
2023/02/22 00:52:28;;;;;;;104.97;15.35;;;;;;;3.57;100.00;100672.97;688001;28;1202;-66
2023/02/22 00:52:49;;;;;;;86.53;15.15;;;;;;;3.61;100.00;100670.44;688193;28;1188;-67
2023/02/22 00:53:10;;;;;;;71.50;14.35;;;;;;;3.60;100.00;100669.59;688549;28;897;-63
2023/02/22 00:53:30;;;;;;;62.53;13.95;;;;;;;3.57;100.00;100674.66;693349;28;880;-66
2023/02/22 00:53:51;;;;;;;75.13;14.40;;;;;;;3.52;100.00;100666.81;694461;28;1160;-66
2023/02/22 00:54:13;;;;;;;106.93;15.35;;;;;;;3.52;100.00;100671.09;694279;28;959;-66
2023/02/22 00:54:34;;;;;;;113.93;15.68;;;;;;;3.55;100.00;100666.00;694968;28;797;-66
2023/02/22 00:54:56;;;;;;;76.28;14.02;;;;;;;3.60;100.00;100669.59;696198;28;4345;-65
2023/02/22 00:55:21;;;;;;;84.15;15.57;;;;;;;3.59;100.00;100665.25;692908;28;803;-67
2023/02/22 00:55:41;;;;;;;75.03;14.55;;;;;;;3.65;100.00;100667.97;694576;28;1390;-65
2023/02/22 00:56:02;;;;;;;72.70;13.90;;;;;;;3.62;100.00;100675.66;696206;28;1369;-66
2023/02/22 00:56:23;;;;;;;59.17;14.50;;;;;;;3.64;100.00;100666.22;691763;28;1168;-67
2023/02/22 00:56:43;;;;;;;63.25;14.15;;;;;;;3.69;100.00;100664.59;691523;28;1184;-65
2023/02/22 00:57:03;;;;;;;80.37;14.30;;;;;;;3.64;100.00;100666.22;691796;28;852;-66
2023/02/22 00:57:24;;;;;;;94.95;14.73;;;;;;;3.61;100.00;100673.88;688328;28;1296;-67
2023/02/22 00:57:45;;;;;;;84.13;14.55;;;;;;;3.57;100.00;100669.47;688227;28;4470;-67
2023/02/22 00:58:07;;;;;;;72.13;14.80;;;;;;;3.56;100.00;100672.94;689524;28;1141;-66
2023/02/22 00:58:28;;;;;;;74.72;14.43;;;;;;;3.54;100.00;100666.84;691893;28;845;-67
2023/02/22 00:58:51;;;;;;;74.85;14.43;;;;;;;3.50;100.00;100671.06;691424;28;1428;-67
2023/02/22 00:59:11;;;;;;;83.72;14.60;;;;;;;3.47;100.00;100667.53;693506;28;1327;-66
2023/02/22 00:59:31;;;;;;;93.57;15.13;;;;;;;3.45;100.00;100667.50;695926;28;803;-65
2023/02/22 00:59:52;;;;;;;80.90;14.97;;;;;;;3.45;100.00;100664.03;693056;28;1491;-65
2023/02/22 01:00:34;;;;;;;119.93;16.67;;;;;;;3.45;100.00;100664.03;694881;28;853;-66
2023/02/22 01:00:54;;;;;;;151.30;18.05;;;;;;;3.45;100.00;100664.03;693116;28;4427;-67
2023/02/22 01:01:15;;;;;;;124.97;17.37;;;;;;;3.50;100.00;100667.59;691716;28;1978;-66
2023/02/22 01:01:35;;;;;;;88.88;15.35;;;;;;;3.57;100.00;100661.72;690323;28;1449;-66
2023/02/22 01:01:55;;;;;;;95.20;15.57;;;;;;;3.61;100.00;100660.97;689014;28;1140;-66
2023/02/22 01:02:16;;;;;;;97.80;15.57;;;;;;;3.61;100.00;100665.28;687394;28;845;-65
2023/02/22 01:02:41;;;;;;;127.78;16.58;;;;;;;3.56;100.00;100668.63;688311;28;1548;-66
2023/02/22 01:03:03;;;;;;;101.88;15.02;;;;;;;3.52;100.00;100664.22;690519;28;1214;-66
2023/02/22 01:03:24;;;;;;;91.82;14.75;;;;;;;3.48;100.00;100664.13;692270;28;994;-65
2023/02/22 01:03:44;;;;;;;69.80;14.23;;;;;;;3.48;100.00;100664.13;691147;28;4364;-66
2023/02/22 01:04:05;;;;;;;62.03;14.50;;;;;;;3.48;100.00;100664.13;692963;28;1014;-66
2023/02/22 01:04:26;;;;;;;81.63;15.52;;;;;;;3.45;100.00;100654.56;692218;28;1475;-67
2023/02/22 01:04:46;;;;;;;59.50;14.73;;;;;;;3.45;100.00;100658.84;691303;28;1314;-66
2023/02/22 01:05:09;;;;;;;83.43;15.17;;;;;;;3.44;100.00;100659.72;691021;28;1139;-67
2023/02/22 01:05:30;;;;;;;102.05;16.63;;;;;;;3.46;100.00;100656.34;692895;28;1051;-67
2023/02/22 01:05:50;;;;;;;114.05;16.30;;;;;;;3.47;100.00;100659.78;692534;28;1171;-66
2023/02/22 01:06:11;;;;;;;95.93;15.38;;;;;;;3.45;100.00;100664.91;693099;28;1151;-67
2023/02/22 01:06:31;;;;;;;100.53;15.27;;;;;;;3.41;100.00;100648.44;691624;28;1166;-66
2023/02/22 01:06:52;;;;;;;101.85;16.38;;;;;;;3.44;100.00;100657.13;687801;28;4435;-66
2023/02/22 01:07:13;;;;;;;100.43;15.63;;;;;;;3.40;100.00;100662.19;689168;28;1226;-66
2023/02/22 01:07:33;;;;;;;137.15;18.88;;;;;;;3.44;100.00;100658.00;690610;28;1218;-66
2023/02/22 01:07:56;;;;;;;107.63;16.67;;;;;;;3.52;100.00;100655.59;690710;28;1371;-66
2023/02/22 01:08:17;;;;;;;79.13;15.10;;;;;;;3.52;100.00;100656.47;690129;28;993;-66
2023/02/22 01:08:37;;;;;;;68.83;14.67;;;;;;;3.51;100.00;100653.84;691775;28;1390;-67
2023/02/22 01:08:57;;;;;;;61.63;14.13;;;;;;;3.50;100.00;100657.25;694129;28;1178;-67
2023/02/22 01:09:18;;;;;;;77.00;14.60;;;;;;;3.50;100.00;100654.66;693178;28;1214;-67
2023/02/22 01:09:40;;;;;;;67.55;14.52;;;;;;;3.48;100.00;100654.63;696030;28;4292;-67
2023/02/22 01:10:01;;;;;;;45.78;13.50;;;;;;;3.46;100.00;100650.25;696480;28;1411;-65
2023/02/22 01:10:24;;;;;;;76.33;15.43;;;;;;;3.46;100.00;100655.44;696883;28;1240;-66
2023/02/22 01:10:45;;;;;;;103.15;16.40;;;;;;;3.44;100.00;100652.81;697306;28;1217;-64
2023/02/22 01:11:05;;;;;;;119.22;16.52;;;;;;;3.47;100.00;100652.03;697693;28;1366;-66
2023/02/22 01:11:26;;;;;;;101.07;15.85;;;;;;;3.55;100.00;100660.84;695934;28;1193;-66
2023/02/22 01:11:52;;;;;;;73.33;14.20;;;;;;;3.54;100.00;100653.91;695395;28;1290;-64
2023/02/22 01:12:14;;;;;;;81.75;15.80;;;;;;;3.53;100.00;100653.06;688353;28;1347;-66
2023/02/22 01:12:35;;;;;;;99.43;15.93;;;;;;;3.53;100.00;100658.22;687857;28;1318;-64
2023/02/22 01:12:56;;;;;;;105.77;15.83;;;;;;;3.53;100.00;100652.16;688331;28;4539;-66
2023/02/22 01:13:18;;;;;;;61.63;14.45;;;;;;;3.50;100.00;100652.09;688542;28;1340;-65
2023/02/22 01:13:39;;;;;;;69.97;14.77;;;;;;;3.48;100.00;100654.63;692904;28;1385;-67
2023/02/22 01:14:00;;;;;;;55.85;14.02;;;;;;;3.48;100.00;100646.03;694704;28;1289;-65
2023/02/22 01:14:22;;;;;;;80.70;14.90;;;;;;;3.47;100.00;100655.47;694416;28;1382;-66
2023/02/22 01:14:42;;;;;;;105.97;15.85;;;;;;;3.44;100.00;100651.97;690749;28;1372;-66
2023/02/22 01:15:04;;;;;;;104.90;15.60;;;;;;;3.39;100.00;100644.97;689836;28;1270;-64
2023/02/22 01:15:29;;;;;;;102.35;16.05;;;;;;;3.39;100.00;100644.06;687735;28;1044;-66
2023/02/22 01:15:50;;;;;;;128.95;17.20;;;;;;;3.39;100.00;100655.31;688486;28;4477;-67
2023/02/22 01:16:10;;;;;;;118.22;16.60;;;;;;;3.38;100.00;100648.38;689510;28;1273;-67
2023/02/22 01:16:30;;;;;;;94.07;15.43;;;;;;;3.37;100.00;100646.63;689669;28;1191;-65
2023/02/22 01:16:55;;;;;;;89.35;15.93;;;;;;;3.41;100.00;100648.44;695166;28;1238;-67
2023/02/22 01:17:15;;;;;;;123.57;20.05;;;;;;;3.48;100.00;100648.59;696676;28;1347;-65
2023/02/22 01:17:37;;;;;;;115.38;17.13;;;;;;;3.46;100.00;100647.69;696906;28;1193;-65
2023/02/22 01:17:58;;;;;;;76.85;15.10;;;;;;;3.45;100.00;100644.22;695456;28;1255;-66
2023/02/22 01:18:20;;;;;;;104.80;16.45;;;;;;;3.44;100.00;100644.19;688838;28;1371;-64
2023/02/22 01:18:42;;;;;;;106.05;16.52;;;;;;;3.41;100.00;100647.59;688430;28;4603;-64
2023/02/22 01:19:02;;;;;;;79.93;14.60;;;;;;;3.41;100.00;100643.28;689640;28;1179;-66
2023/02/22 01:19:23;;;;;;;70.35;14.38;;;;;;;3.39;100.00;100639.78;687146;28;4076;-65
2023/02/22 01:19:43;;;;;;;96.30;15.60;;;;;;;3.38;100.00;100648.38;687488;28;1342;-65
2023/02/22 01:20:11;;;;;;;68.23;14.53;;;;;;;3.36;100.00;100639.69;688932;28;1166;-66
2023/02/22 01:20:32;;;;;;;56.22;13.95;;;;;;;3.40;100.00;100644.09;691254;28;1182;-66
2023/02/22 01:20:53;;;;;;;59.67;14.00;;;;;;;3.45;100.00;100641.66;691212;28;1192;-65
2023/02/22 01:21:13;;;;;;;77.88;15.82;;;;;;;3.44;100.00;100641.63;690242;28;2021;-64
2023/02/22 01:21:35;;;;;;;56.17;13.85;;;;;;;3.43;100.00;100643.31;692810;28;1198;-65
2023/02/22 01:21:55;;;;;;;54.13;14.20;;;;;;;3.39;100.00;100637.22;693275;28;4565;-66
2023/02/22 01:22:15;;;;;;;94.93;16.23;;;;;;;3.37;100.00;100645.75;693738;28;1313;-67
2023/02/22 01:22:36;;;;;;;103.40;15.85;;;;;;;3.40;100.00;100640.66;694067;28;1340;-66
2023/02/22 01:22:58;;;;;;;81.47;15.15;;;;;;;3.41;100.00;100643.28;693963;28;1170;-65
2023/02/22 01:23:19;;;;;;;59.88;13.95;;;;;;;3.39;100.00;100639.78;694220;28;1190;-66
2023/02/22 01:23:40;;;;;;;90.70;14.88;;;;;;;3.38;100.00;100645.78;694777;28;1178;-66
2023/02/22 01:24:00;;;;;;;112.00;17.07;;;;;;;3.45;100.00;100639.06;694089;28;1383;-66
2023/02/22 01:24:21;;;;;;;74.87;15.30;;;;;;;3.52;100.00;100640.94;695025;28;1404;-65
2023/02/22 01:24:41;;;;;;;77.20;14.00;;;;;;;3.49;100.00;100635.72;696589;28;4402;-67
2023/02/22 01:25:05;;;;;;;90.30;14.40;;;;;;;3.48;100.00;100643.44;695438;28;1055;-66
2023/02/22 01:25:28;;;;;;;108.25;15.52;;;;;;;3.41;100.00;100645.84;695657;28;1272;-67
2023/02/22 01:25:48;;;;;;;94.82;14.80;;;;;;;3.44;100.00;100639.03;695069;28;1225;-66
2023/02/22 01:26:09;;;;;;;89.13;14.70;;;;;;;3.45;100.00;100640.75;691896;28;1210;-65
2023/02/22 01:26:29;;;;;;;82.93;14.25;;;;;;;3.47;100.00;100639.97;690841;28;1155;-64
2023/02/22 01:26:51;;;;;;;68.00;12.77;;;;;;;3.49;100.00;100637.41;685838;28;1164;-65
2023/02/22 01:27:12;;;;;;;90.18;14.60;;;;;;;3.46;100.00;100639.94;684580;28;1222;-66
2023/02/22 01:27:33;;;;;;;102.28;16.52;;;;;;;3.43;100.00;100637.28;686242;28;1318;-65
2023/02/22 01:27:55;;;;;;;100.30;15.57;;;;;;;3.41;100.00;100632.94;687974;28;4368;-65
2023/02/22 01:28:16;;;;;;;77.18;14.50;;;;;;;3.44;100.00;100636.44;690651;28;1214;-66
2023/02/22 01:28:37;;;;;;;75.65;14.25;;;;;;;3.39;100.00;100638.91;690803;28;1208;-67
2023/02/22 01:28:57;;;;;;;63.13;13.30;;;;;;;3.43;100.00;100639.88;687805;28;1351;-66
2023/02/22 01:29:20;;;;;;;47.92;12.82;;;;;;;3.49;100.00;100635.72;691862;28;1558;-66
2023/02/22 01:29:41;;;;;;;64.20;13.48;;;;;;;3.54;100.00;100631.50;693567;28;1288;-66
2023/02/22 01:30:07;;;;;;;65.60;13.13;;;;;;;3.55;100.00;100638.44;695165;28;1448;-66
2023/02/22 01:30:34;;;;;;;74.35;13.63;;;;;;;3.59;100.00;100629.06;692718;28;1182;-66
2023/02/22 01:30:54;;;;;;;66.95;13.13;;;;;;;3.50;100.00;100628.81;694107;28;4432;-65
2023/02/22 01:31:17;;;;;;;55.45;13.30;;;;;;;3.43;100.00;100630.38;693052;28;1275;-64
2023/02/22 01:31:37;;;;;;;62.07;13.77;;;;;;;3.39;100.00;100634.63;693566;28;1595;-66
2023/02/22 01:32:00;;;;;;;104.32;14.90;;;;;;;3.39;100.00;100631.16;692378;28;1359;-67
2023/02/22 01:32:21;;;;;;;94.72;14.30;;;;;;;3.44;100.00;100633.88;692545;28;1269;-66
2023/02/22 01:32:43;;;;;;;70.93;13.23;;;;;;;3.45;100.00;100627.84;692023;28;1127;-66
2023/02/22 01:33:06;;;;;;;79.38;13.38;;;;;;;3.43;100.00;100630.38;690119;28;1632;-66
2023/02/22 01:33:27;;;;;;;65.05;13.00;;;;;;;3.39;100.00;100625.97;689103;28;1452;-67
2023/02/22 01:33:50;;;;;;;50.37;12.87;;;;;;;3.35;100.00;100632.81;690324;28;4382;-62
2023/02/22 01:34:11;;;;;;;33.17;12.52;;;;;;;3.32;100.00;100632.72;687303;28;1151;-66
2023/02/22 01:34:32;;;;;;;30.90;13.05;;;;;;;3.29;100.00;100627.47;686691;28;1135;-65
2023/02/22 01:34:53;;;;;;;38.97;13.30;;;;;;;3.29;100.00;100630.06;687439;28;1442;-65
2023/02/22 01:35:17;;;;;;;66.63;14.23;;;;;;;3.28;100.00;100624.84;688275;28;1150;-64
2023/02/22 01:35:41;;;;;;;62.53;13.80;;;;;;;3.28;100.00;100622.28;688158;28;1261;-66
2023/02/22 01:36:02;;;;;;;50.80;12.80;;;;;;;3.39;100.00;100626.88;685417;28;1425;-65
2023/02/22 01:36:22;;;;;;;49.70;12.63;;;;;;;3.40;100.00;100620.84;686847;28;1005;-66
2023/02/22 01:36:43;;;;;;;82.70;14.70;;;;;;;3.37;100.00;100623.38;687563;28;4525;-66
2023/02/22 01:37:05;;;;;;;74.20;14.57;;;;;;;3.34;100.00;100627.59;690644;28;1254;-65
2023/02/22 01:37:26;;;;;;;63.00;13.30;;;;;;;3.29;100.00;100622.31;689228;28;1276;-65
2023/02/22 01:37:47;;;;;;;84.10;14.18;;;;;;;3.26;100.00;100627.41;692523;28;1214;-66
2023/02/22 01:38:08;;;;;;;97.00;15.13;;;;;;;3.24;100.00;100623.94;690841;28;988;-66
2023/02/22 01:38:29;;;;;;;80.57;13.98;;;;;;;3.22;100.00;100625.59;689384;28;1222;-66
2023/02/22 01:38:49;;;;;;;100.47;14.83;;;;;;;3.21;100.00;100621.25;688895;28;1143;-65
2023/02/22 01:39:10;;;;;;;71.70;13.45;;;;;;;3.23;100.00;100623.03;688372;28;1179;-65
2023/02/22 01:39:30;;;;;;;85.10;13.53;;;;;;;3.20;100.00;100622.97;689088;28;1459;-66
2023/02/22 01:39:50;;;;;;;133.57;16.67;;;;;;;3.18;100.00;100618.59;688809;28;4393;-66
2023/02/22 01:40:20;;;;;;;117.20;16.73;;;;;;;3.16;100.00;100625.44;693005;28;1175;-63
2023/02/22 01:40:45;;;;;;;103.85;15.88;;;;;;;3.19;100.00;100625.50;694380;28;1313;-67
2023/02/22 01:41:06;;;;;;;69.53;14.20;;;;;;;3.16;100.00;100617.69;693735;28;1871;-67